createdAt,value
2023-06-17T00:00:57.087Z,99.90
2023-06-17T00:03:24.431Z,99.90
2023-06-17T00:05:52.987Z,99.90
2023-06-17T00:08:20.792Z,99.90
2023-06-17T00:10:48.106Z,99.90
2023-06-17T00:13:20.594Z,99.90
2023-06-17T00:15:52.453Z,99.90
2023-06-17T00:18:21.195Z,99.90
2023-06-17T00:20:49.648Z,99.90
2023-06-17T00:23:17.031Z,99.90
2023-06-17T00:25:44.265Z,99.90
2023-06-17T00:28:11.434Z,99.90
2023-06-17T00:30:38.746Z,99.90
2023-06-17T00:33:06.498Z,99.90
2023-06-17T00:35:34.747Z,99.90
2023-06-17T00:38:02.188Z,99.90
2023-06-17T00:40:29.425Z,99.90
2023-06-17T00:42:56.598Z,99.90
2023-06-17T00:45:23.739Z,99.90
2023-06-17T00:47:51.861Z,99.90
2023-06-17T00:50:19.643Z,99.90
2023-06-17T00:52:50.071Z,99.90
2023-06-17T00:55:17.298Z,99.90
2023-06-17T00:57:47.355Z,99.90
2023-06-17T01:00:16.422Z,99.90
2023-06-17T01:02:46.579Z,99.90
2023-06-17T01:05:18.490Z,99.90
2023-06-17T01:08:20.907Z,99.90
2023-06-17T01:10:51.108Z,99.90
2023-06-17T01:13:20.292Z,99.90
2023-06-17T01:15:48.706Z,99.90
2023-06-17T01:18:19.146Z,99.90
2023-06-17T01:20:49.989Z,99.90
2023-06-17T01:23:18.213Z,99.90
2023-06-17T01:25:47.211Z,99.90
2023-06-17T01:28:21.712Z,99.90
2023-06-17T01:30:49.459Z,99.90
2023-06-17T01:33:17.252Z,99.90
2023-06-17T01:35:54.226Z,99.90
2023-06-17T01:38:31.529Z,99.90
2023-06-17T01:41:11.276Z,99.90
2023-06-17T01:43:41.216Z,99.90
2023-06-17T01:46:08.843Z,99.90
2023-06-17T01:48:36.206Z,99.90
2023-06-17T01:51:03.646Z,99.90
2023-06-17T01:53:30.744Z,99.90
2023-06-17T01:55:57.986Z,99.90
2023-06-17T01:58:26.117Z,99.90
2023-06-17T02:00:53.283Z,99.90
2023-06-17T02:03:20.703Z,99.90
2023-06-17T02:05:47.978Z,99.90
2023-06-17T02:08:16.335Z,99.90
2023-06-17T02:10:43.554Z,99.90
2023-06-17T02:13:10.897Z,99.90
2023-06-17T02:15:40.033Z,99.90
2023-06-17T02:18:07.886Z,99.90
2023-06-17T02:20:35.363Z,99.90
2023-06-17T02:23:02.580Z,99.90
2023-06-17T02:25:29.729Z,99.90
2023-06-17T02:27:56.906Z,99.90
2023-06-17T02:30:24.251Z,99.90
2023-06-17T02:32:51.602Z,99.90
2023-06-17T02:35:18.726Z,99.90
2023-06-17T02:37:45.995Z,99.90
2023-06-17T02:40:13.280Z,99.90
2023-06-17T02:42:40.979Z,99.90
2023-06-17T02:45:08.740Z,99.90
2023-06-17T02:47:35.942Z,99.90
2023-06-17T02:50:03.099Z,99.90
2023-06-17T02:52:31.999Z,99.90
2023-06-17T02:54:59.225Z,99.90
2023-06-17T02:57:26.473Z,99.90
2023-06-17T02:59:53.934Z,99.90
2023-06-17T03:02:21.123Z,99.90
2023-06-17T03:04:49.752Z,99.90
2023-06-17T03:07:20.031Z,99.90
2023-06-17T03:09:47.264Z,99.90
2023-06-17T03:12:14.461Z,99.90
2023-06-17T03:14:41.675Z,99.90
2023-06-17T03:17:09.275Z,99.90
2023-06-17T03:19:37.479Z,99.90
2023-06-17T03:22:04.909Z,99.90
2023-06-17T03:24:32.297Z,99.90
2023-06-17T03:26:59.624Z,99.90
2023-06-17T03:29:26.922Z,99.90
2023-06-17T03:31:58.276Z,99.90
2023-06-17T03:34:26.490Z,99.90
2023-06-17T03:36:53.902Z,99.90
2023-06-17T03:39:21.051Z,99.90
2023-06-17T03:41:48.176Z,99.90
2023-06-17T03:44:15.726Z,99.90
2023-06-17T03:46:43.022Z,99.90
2023-06-17T03:49:10.187Z,99.90
2023-06-17T03:51:38.391Z,99.90
2023-06-17T03:54:05.615Z,99.90
2023-06-17T03:56:32.889Z,99.90
2023-06-17T03:59:00.176Z,99.90
2023-06-17T04:01:27.297Z,99.90
2023-06-17T04:03:54.446Z,99.90
2023-06-17T04:06:22.181Z,99.90
2023-06-17T04:08:49.589Z,99.90
2023-06-17T04:11:17.702Z,99.90
2023-06-17T04:13:44.928Z,99.90
2023-06-17T04:16:12.482Z,99.90
2023-06-17T04:18:41.494Z,99.90
2023-06-17T04:21:08.724Z,99.90
2023-06-17T04:23:36.115Z,99.90
2023-06-17T04:26:03.308Z,99.90
2023-06-17T04:28:33.463Z,99.90
2023-06-17T04:31:03.899Z,99.90
2023-06-17T04:33:32.091Z,99.90
2023-06-17T04:35:59.334Z,99.90
2023-06-17T04:38:26.464Z,99.90
2023-06-17T04:40:54.019Z,99.90
2023-06-17T04:43:25.423Z,99.90
2023-06-17T04:45:52.930Z,99.90
2023-06-17T04:48:20.958Z,99.90
2023-06-17T04:50:49.704Z,99.90
2023-06-17T04:53:16.905Z,99.90
2023-06-17T04:55:44.576Z,99.90
2023-06-17T04:58:11.793Z,99.90
2023-06-17T05:00:39.191Z,99.90
2023-06-17T05:03:06.679Z,99.90
2023-06-17T05:05:33.952Z,99.90
2023-06-17T05:08:01.413Z,99.90
2023-06-17T05:10:28.689Z,99.90
2023-06-17T05:12:55.946Z,99.90
2023-06-17T05:15:23.226Z,99.90
2023-06-17T05:17:50.807Z,99.90
2023-06-17T05:20:18.144Z,99.90
2023-06-17T05:22:45.559Z,99.90
2023-06-17T05:25:12.714Z,99.90
2023-06-17T05:27:39.940Z,99.90
2023-06-17T05:30:07.915Z,99.90
2023-06-17T05:32:35.211Z,99.90
2023-06-17T05:35:02.538Z,99.90
2023-06-17T05:37:29.831Z,99.50
2023-06-17T05:39:57.021Z,99.10
2023-06-17T05:42:24.184Z,98.70
2023-06-17T05:44:51.350Z,99.90
2023-06-17T05:47:18.515Z,99.90
2023-06-17T05:49:45.682Z,99.90
2023-06-17T05:52:14.251Z,99.90
2023-06-17T05:54:41.389Z,99.90
2023-06-17T05:57:08.652Z,99.90
2023-06-17T05:59:36.136Z,99.90
2023-06-17T06:02:03.584Z,99.90
2023-06-17T06:04:31.362Z,99.90
2023-06-17T06:06:58.489Z,99.50
2023-06-17T06:09:25.829Z,98.40
2023-06-17T06:11:53.053Z,96.50
2023-06-17T06:14:20.212Z,95.80
2023-06-17T06:16:47.617Z,95.20
2023-06-17T06:19:14.890Z,94.90
2023-06-17T06:21:42.117Z,94.00
2023-06-17T06:24:09.359Z,92.50
2023-06-17T06:26:36.616Z,92.20
2023-06-17T06:29:03.958Z,92.70
2023-06-17T06:31:31.562Z,91.70
2023-06-17T06:33:58.785Z,91.70
2023-06-17T06:36:25.907Z,91.40
2023-06-17T06:38:53.187Z,90.50
2023-06-17T06:41:20.456Z,88.90
2023-06-17T06:43:48.945Z,88.40
2023-06-17T06:46:16.696Z,87.70
2023-06-17T06:48:44.105Z,87.40
2023-06-17T06:51:11.500Z,84.30
2023-06-17T06:53:38.695Z,81.00
2023-06-17T06:56:05.939Z,80.80
2023-06-17T06:58:34.259Z,80.60
2023-06-17T07:01:01.563Z,79.60
2023-06-17T07:03:28.801Z,78.00
2023-06-17T07:05:56.167Z,76.60
2023-06-17T07:08:25.303Z,75.00
2023-06-17T07:10:52.430Z,74.90
2023-06-17T07:13:19.739Z,74.40
2023-06-17T07:15:47.076Z,72.70
2023-06-17T07:18:16.109Z,73.00
2023-06-17T07:20:43.763Z,72.20
2023-06-17T07:23:11.374Z,70.90
2023-06-17T07:25:38.563Z,70.70
2023-06-17T07:28:06.654Z,70.30
2023-06-17T07:30:34.118Z,70.50
2023-06-17T07:33:01.607Z,71.30
2023-06-17T07:35:30.307Z,69.00
2023-06-17T07:37:57.844Z,70.00
2023-06-17T07:40:25.149Z,69.40
2023-06-17T07:42:52.354Z,69.50
2023-06-17T07:45:19.616Z,70.30
2023-06-17T07:47:46.837Z,70.30
2023-06-17T07:50:14.066Z,70.00
2023-06-17T07:52:41.388Z,70.10
2023-06-17T07:55:12.190Z,68.70
2023-06-17T07:57:39.566Z,69.10
2023-06-17T08:00:11.371Z,70.10
2023-06-17T08:02:38.571Z,66.70
2023-06-17T08:05:06.245Z,66.80
2023-06-17T08:07:33.558Z,67.60
2023-06-17T08:10:00.984Z,68.20
2023-06-17T08:12:28.365Z,68.60
2023-06-17T08:14:55.765Z,68.20
2023-06-17T08:17:22.893Z,67.70
2023-06-17T08:19:50.131Z,67.60
2023-06-17T08:22:17.411Z,67.50
2023-06-17T08:24:44.619Z,67.60
2023-06-17T08:27:13.448Z,67.80
2023-06-17T08:29:41.330Z,68.00
2023-06-17T08:32:08.782Z,67.90
2023-06-17T08:34:36.955Z,67.00
2023-06-17T08:37:05.944Z,67.80
2023-06-17T08:39:33.513Z,68.10
2023-06-17T08:42:00.809Z,67.60
2023-06-17T08:44:32.977Z,67.00
2023-06-17T08:47:04.781Z,67.30
2023-06-17T08:49:32.257Z,68.00
2023-06-17T08:52:01.661Z,69.00
2023-06-17T08:54:29.467Z,70.10
2023-06-17T08:56:57.321Z,69.70
2023-06-17T08:59:24.540Z,67.10
2023-06-17T09:01:53.984Z,67.40
2023-06-17T09:04:23.346Z,67.60
2023-06-17T09:06:52.445Z,66.80
2023-06-17T09:09:20.345Z,65.70
2023-06-17T09:11:53.925Z,66.30
2023-06-17T09:14:23.778Z,67.90
2023-06-17T09:16:51.850Z,65.90
2023-06-17T09:19:19.160Z,66.20
2023-06-17T09:21:49.149Z,66.40
2023-06-17T09:24:16.463Z,65.90
2023-06-17T09:26:45.626Z,65.10
2023-06-17T09:29:14.690Z,67.60
2023-06-17T09:31:55.141Z,68.00
2023-06-17T09:34:23.020Z,67.80
2023-06-17T09:37:02.320Z,67.90
2023-06-17T09:39:34.143Z,67.10
2023-06-17T09:42:12.117Z,65.60
2023-06-17T09:44:41.245Z,67.00
2023-06-17T09:47:12.845Z,68.90
2023-06-17T09:49:40.292Z,65.20
2023-06-17T09:52:10.533Z,63.30
2023-06-17T09:54:39.099Z,64.50
2023-06-17T09:57:10.743Z,64.70
2023-06-17T09:59:39.204Z,63.40
2023-06-17T10:02:06.942Z,64.50
2023-06-17T10:04:36.445Z,64.30
2023-06-17T10:07:09.176Z,64.70
2023-06-17T10:09:37.112Z,63.50
2023-06-17T10:12:07.024Z,62.70
2023-06-17T10:14:35.415Z,63.30
2023-06-17T10:17:06.828Z,65.20
2023-06-17T10:19:38.659Z,65.00
2023-06-17T10:22:12.644Z,63.60
2023-06-17T10:24:40.421Z,63.50
2023-06-17T10:27:08.571Z,63.60
2023-06-17T10:29:36.481Z,64.10
2023-06-17T10:32:27.524Z,64.20
2023-06-17T10:35:07.121Z,63.20
2023-06-17T10:37:46.197Z,64.30
2023-06-17T10:40:22.878Z,65.20
2023-06-17T10:43:05.231Z,65.90
2023-06-17T10:45:34.174Z,64.40
2023-06-17T10:48:21.640Z,64.40
2023-06-17T10:51:01.866Z,64.50
2023-06-17T10:53:37.652Z,64.80
2023-06-17T10:56:06.589Z,62.00
2023-06-17T10:58:36.588Z,64.70
2023-06-17T11:01:03.899Z,62.40
2023-06-17T11:03:31.301Z,63.30
2023-06-17T11:05:59.885Z,63.90
2023-06-17T11:08:28.353Z,62.40
2023-06-17T11:11:06.259Z,62.80
2023-06-17T11:13:33.526Z,64.00
2023-06-17T11:16:00.734Z,64.20
2023-06-17T11:18:27.985Z,61.90
2023-06-17T11:20:55.226Z,63.80
2023-06-17T11:23:22.698Z,63.70
2023-06-17T11:25:53.558Z,62.30
2023-06-17T11:28:22.269Z,61.60
2023-06-17T11:30:51.011Z,61.10
2023-06-17T11:33:25.061Z,61.60
2023-06-17T11:35:54.845Z,63.00
2023-06-17T11:38:23.790Z,61.30
2023-06-17T11:40:55.638Z,61.90
2023-06-17T11:43:27.354Z,61.40
2023-06-17T11:45:57.634Z,62.70
2023-06-17T11:48:34.068Z,62.90
2023-06-17T11:51:01.556Z,62.10
2023-06-17T11:53:37.530Z,61.20
2023-06-17T11:56:09.363Z,60.20
2023-06-17T11:58:40.168Z,60.70
2023-06-17T12:01:08.651Z,61.50
2023-06-17T12:03:37.038Z,62.60
2023-06-17T12:06:05.333Z,61.10
2023-06-17T12:08:37.322Z,62.20
2023-06-17T12:11:09.006Z,59.30
2023-06-17T12:13:44.171Z,59.50
2023-06-17T12:16:13.047Z,60.40
2023-06-17T12:18:49.880Z,60.40
2023-06-17T12:21:17.088Z,59.90
2023-06-17T12:23:45.942Z,59.00
2023-06-17T12:26:14.064Z,59.00
2023-06-17T12:28:41.488Z,58.90
2023-06-17T12:31:09.958Z,59.60
2023-06-17T12:33:37.829Z,59.70
2023-06-17T12:36:09.086Z,60.80
2023-06-17T12:38:36.589Z,61.40
2023-06-17T12:41:03.834Z,61.30
2023-06-17T12:43:31.217Z,61.80
2023-06-17T12:46:02.227Z,62.80
2023-06-17T12:48:30.904Z,61.00
2023-06-17T12:50:58.746Z,60.60
2023-06-17T12:53:25.978Z,59.70
2023-06-17T12:55:56.681Z,58.80
2023-06-17T12:58:25.531Z,58.60
2023-06-17T13:00:53.573Z,58.40
2023-06-17T13:03:21.489Z,58.90
2023-06-17T13:05:49.907Z,58.90
2023-06-17T13:08:17.986Z,58.80
2023-06-17T13:10:45.241Z,58.50
2023-06-17T13:13:12.551Z,59.50
2023-06-17T13:15:40.106Z,59.50
2023-06-17T13:18:09.382Z,58.40
2023-06-17T13:20:36.916Z,58.40
2023-06-17T13:23:05.707Z,58.00
2023-06-17T13:25:33.024Z,58.80
2023-06-17T13:28:00.420Z,58.90
2023-06-17T13:30:27.601Z,59.30
2023-06-17T13:32:54.921Z,59.60
2023-06-17T13:35:22.686Z,59.40
2023-06-17T13:37:50.547Z,57.40
2023-06-17T13:40:18.184Z,58.40
2023-06-17T13:42:45.532Z,59.60
2023-06-17T13:45:15.525Z,60.10
2023-06-17T13:47:43.138Z,59.00
2023-06-17T13:50:10.934Z,59.80
2023-06-17T13:52:38.316Z,58.40
2023-06-17T13:55:06.153Z,58.50
2023-06-17T13:57:33.514Z,58.00
2023-06-17T14:00:00.722Z,56.60
2023-06-17T14:02:27.930Z,58.50
2023-06-17T14:04:55.768Z,58.70
2023-06-17T14:07:23.052Z,59.30
2023-06-17T14:09:50.278Z,60.40
2023-06-17T14:12:17.487Z,60.90
2023-06-17T14:14:46.200Z,60.70
2023-06-17T14:17:14.148Z,59.90
2023-06-17T14:19:41.387Z,57.90
2023-06-17T14:22:10.489Z,58.00
2023-06-17T14:24:40.369Z,58.50
2023-06-17T14:27:24.748Z,59.20
2023-06-17T14:29:51.965Z,58.20
2023-06-17T14:32:19.179Z,59.60
2023-06-17T14:34:46.458Z,59.80
2023-06-17T14:37:13.811Z,59.30
2023-06-17T14:39:41.166Z,58.80
2023-06-17T14:42:08.637Z,59.30
2023-06-17T14:44:35.935Z,60.10
2023-06-17T14:47:03.116Z,60.00
2023-06-17T14:49:30.496Z,58.40
2023-06-17T14:51:57.841Z,58.70
2023-06-17T14:54:25.014Z,56.20
2023-06-17T14:56:52.240Z,56.60
2023-06-17T14:59:19.503Z,57.70
2023-06-17T15:01:46.847Z,55.90
2023-06-17T15:04:14.721Z,54.90
2023-06-17T15:06:42.365Z,54.30
2023-06-17T15:09:28.459Z,53.40
2023-06-17T15:12:01.407Z,53.50
2023-06-17T15:14:31.749Z,53.60
2023-06-17T15:16:59.808Z,54.50
2023-06-17T15:19:27.108Z,52.80
2023-06-17T15:21:54.367Z,50.60
2023-06-17T15:24:21.765Z,50.50
2023-06-17T15:26:49.090Z,50.60
2023-06-17T15:29:16.984Z,50.60
2023-06-17T15:31:45.483Z,50.10
2023-06-17T15:34:12.687Z,49.10
2023-06-17T15:36:40.050Z,49.50
2023-06-17T15:39:29.106Z,48.90
2023-06-17T15:41:56.473Z,50.10
2023-06-17T15:44:23.840Z,49.60
2023-06-17T15:46:51.927Z,51.00
2023-06-17T15:49:19.716Z,50.80
2023-06-17T15:51:46.884Z,52.30
2023-06-17T15:54:14.494Z,53.80
2023-06-17T15:56:47.579Z,54.60
2023-06-17T15:59:15.043Z,55.10
2023-06-17T16:01:42.394Z,55.60
2023-06-17T16:04:36.402Z,55.60
2023-06-17T16:07:09.113Z,57.00
2023-06-17T16:09:38.344Z,56.80
2023-06-17T16:12:06.780Z,56.60
2023-06-17T16:14:34.615Z,56.80
2023-06-17T16:17:04.560Z,56.80
2023-06-17T16:19:36.964Z,57.30
2023-06-17T16:22:13.529Z,57.10
2023-06-17T16:24:43.120Z,57.80
2023-06-17T16:27:12.128Z,57.80
2023-06-17T16:29:39.498Z,57.50
2023-06-17T16:32:07.152Z,57.10
2023-06-17T16:34:34.598Z,56.90
2023-06-17T16:37:02.024Z,57.70
2023-06-17T16:39:29.586Z,58.30
2023-06-17T16:41:56.863Z,57.30
2023-06-17T16:44:24.068Z,57.50
2023-06-17T16:46:51.274Z,57.50
2023-06-17T16:49:18.578Z,57.00
2023-06-17T16:51:46.206Z,57.10
2023-06-17T16:54:13.385Z,57.00
2023-06-17T16:56:41.185Z,57.20
2023-06-17T16:59:08.423Z,58.00
2023-06-17T17:01:35.741Z,58.80
2023-06-17T17:04:10.567Z,58.40
2023-06-17T17:06:38.937Z,58.60
2023-06-17T17:09:06.393Z,58.60
2023-06-17T17:11:33.770Z,58.00
2023-06-17T17:14:01.324Z,58.60
2023-06-17T17:16:29.082Z,58.90
2023-06-17T17:18:56.458Z,59.40
2023-06-17T17:21:23.690Z,60.30
2023-06-17T17:23:50.942Z,60.20
2023-06-17T17:26:18.281Z,60.10
2023-06-17T17:28:46.235Z,60.10
2023-06-17T17:31:13.551Z,60.20
2023-06-17T17:33:40.795Z,60.30
2023-06-17T17:36:08.074Z,60.30
2023-06-17T17:38:35.279Z,60.60
2023-06-17T17:41:02.611Z,61.30
2023-06-17T17:43:31.125Z,61.00
2023-06-17T17:45:58.932Z,61.40
2023-06-17T17:48:26.295Z,61.60
2023-06-17T17:50:53.506Z,61.30
2023-06-17T17:53:20.670Z,61.50
2023-06-17T17:55:47.957Z,62.00
2023-06-17T17:58:17.167Z,62.50
2023-06-17T18:00:44.417Z,62.40
2023-06-17T18:03:12.082Z,62.40
2023-06-17T18:05:39.423Z,62.40
2023-06-17T18:08:06.731Z,63.30
2023-06-17T18:10:33.975Z,62.80
2023-06-17T18:13:01.123Z,62.80
2023-06-17T18:15:28.921Z,63.10
2023-06-17T18:17:56.176Z,63.10
2023-06-17T18:20:23.961Z,63.90
2023-06-17T18:22:52.406Z,64.50
2023-06-17T18:25:19.608Z,65.90
2023-06-17T18:27:46.854Z,66.00
2023-06-17T18:30:15.540Z,67.40
2023-06-17T18:32:42.851Z,68.30
2023-06-17T18:35:10.222Z,69.10
2023-06-17T18:37:38.243Z,70.30
2023-06-17T18:40:06.027Z,71.40
2023-06-17T18:42:33.623Z,72.50
2023-06-17T18:45:00.883Z,73.70
2023-06-17T18:47:28.093Z,74.90
2023-06-17T18:49:55.334Z,75.60
2023-06-17T18:52:22.585Z,76.70
2023-06-17T18:54:49.776Z,77.40
2023-06-17T18:57:17.084Z,77.90
2023-06-17T18:59:44.288Z,78.50
2023-06-17T19:02:11.519Z,79.00
2023-06-17T19:04:38.761Z,79.60
2023-06-17T19:07:05.948Z,81.10
2023-06-17T19:09:33.216Z,81.30
2023-06-17T19:12:03.029Z,81.60
2023-06-17T19:14:30.230Z,82.30
2023-06-17T19:16:57.551Z,82.80
2023-06-17T19:19:24.827Z,83.50
2023-06-17T19:21:52.107Z,84.40
2023-06-17T19:24:21.978Z,85.50
2023-06-17T19:26:49.293Z,86.00
2023-06-17T19:29:16.560Z,86.80
2023-06-17T19:31:43.796Z,87.60
2023-06-17T19:34:11.053Z,88.20
2023-06-17T19:36:38.350Z,89.10
2023-06-17T19:39:05.678Z,90.10
2023-06-17T19:41:32.901Z,90.60
2023-06-17T19:44:00.183Z,91.20
2023-06-17T19:46:28.614Z,92.10
2023-06-17T19:48:55.943Z,93.10
2023-06-17T19:51:23.150Z,94.30
2023-06-17T19:53:51.116Z,95.40
2023-06-17T19:56:19.713Z,96.30
2023-06-17T19:58:47.323Z,97.00
2023-06-17T20:01:14.607Z,97.70
2023-06-17T20:03:41.958Z,98.50
2023-06-17T20:06:09.309Z,99.20
2023-06-17T20:08:36.471Z,99.90
2023-06-17T20:11:03.886Z,99.90
2023-06-17T20:13:31.123Z,99.90
2023-06-17T20:15:58.454Z,99.90
2023-06-17T20:18:25.853Z,99.90
2023-06-17T20:20:53.098Z,99.90
2023-06-17T20:23:20.480Z,99.90
2023-06-17T20:25:48.024Z,99.90
2023-06-17T20:28:15.282Z,99.90
2023-06-17T20:30:42.568Z,99.90
2023-06-17T20:33:09.900Z,99.90
2023-06-17T20:35:37.172Z,99.90
2023-06-17T20:38:04.348Z,99.90
2023-06-17T20:40:31.699Z,99.90
2023-06-17T20:42:58.954Z,99.90
2023-06-17T20:45:26.225Z,99.90
2023-06-17T20:47:53.542Z,99.90
2023-06-17T20:50:20.895Z,99.90
2023-06-17T20:52:48.301Z,99.90
2023-06-17T20:55:15.777Z,99.90
2023-06-17T20:57:43.430Z,99.90
2023-06-17T21:00:11.311Z,99.90
2023-06-17T21:02:39.092Z,99.90
2023-06-17T21:05:06.593Z,99.90
2023-06-17T21:07:33.800Z,99.90
2023-06-17T21:10:01.523Z,99.90
2023-06-17T21:12:29.044Z,99.90
2023-06-17T21:14:56.286Z,99.90
2023-06-17T21:17:23.467Z,99.90
2023-06-17T21:19:50.893Z,99.90
2023-06-17T21:22:18.455Z,99.90
2023-06-17T21:24:45.781Z,99.90
2023-06-17T21:27:13.022Z,99.90
2023-06-17T21:29:40.584Z,99.90
2023-06-17T21:32:10.402Z,99.90
2023-06-17T21:34:40.960Z,99.90
2023-06-17T21:37:08.652Z,99.90
2023-06-17T21:39:35.833Z,99.90
2023-06-17T21:42:03.076Z,99.90
2023-06-17T21:44:34.652Z,99.90
2023-06-17T21:47:03.764Z,99.90
2023-06-17T21:49:31.059Z,99.90
2023-06-17T21:51:58.306Z,99.90
2023-06-17T21:54:25.480Z,99.90
2023-06-17T21:56:52.709Z,99.90
2023-06-17T21:59:19.909Z,99.90
2023-06-17T22:01:47.266Z,99.90
2023-06-17T22:04:14.490Z,99.90
2023-06-17T22:06:41.680Z,99.90
2023-06-17T22:09:08.871Z,99.90
2023-06-17T22:11:36.038Z,99.90
2023-06-17T22:14:03.238Z,99.90
2023-06-17T22:16:30.488Z,99.90
2023-06-17T22:18:57.988Z,99.90
2023-06-17T22:21:25.242Z,99.90
2023-06-17T22:23:52.462Z,99.90
2023-06-17T22:26:19.807Z,99.90
2023-06-17T22:28:47.120Z,99.90
2023-06-17T22:31:14.414Z,99.90
2023-06-17T22:33:41.664Z,99.90
2023-06-17T22:36:08.851Z,99.90
2023-06-17T22:38:36.105Z,99.90
2023-06-17T22:41:03.381Z,99.90
2023-06-17T22:43:30.716Z,99.90
2023-06-17T22:45:57.828Z,99.90
2023-06-17T22:48:25.036Z,99.90
2023-06-17T22:50:52.674Z,99.90
2023-06-17T22:53:19.941Z,99.90
2023-06-17T22:55:47.950Z,99.90
2023-06-17T22:58:15.112Z,99.90
2023-06-17T23:00:42.312Z,99.90
2023-06-17T23:03:11.968Z,99.90
2023-06-17T23:05:39.216Z,99.90
2023-06-17T23:08:06.436Z,99.90
2023-06-17T23:10:33.601Z,99.90
2023-06-17T23:13:00.741Z,99.90
2023-06-17T23:15:28.025Z,99.90
2023-06-17T23:17:55.216Z,99.90
2023-06-17T23:20:22.783Z,99.90
2023-06-17T23:22:51.204Z,99.90
2023-06-17T23:25:18.827Z,99.90
2023-06-17T23:27:49.738Z,99.90
2023-06-17T23:30:16.960Z,99.90
2023-06-17T23:32:44.433Z,99.90
2023-06-17T23:35:11.637Z,99.90
2023-06-17T23:37:38.839Z,99.90
2023-06-17T23:40:06.995Z,99.90
2023-06-17T23:42:34.197Z,99.90
2023-06-17T23:45:02.071Z,99.90
2023-06-17T23:47:29.321Z,99.90
2023-06-17T23:49:56.476Z,99.90
2023-06-17T23:52:23.774Z,99.90
2023-06-17T23:54:51.088Z,99.90
2023-06-17T23:57:18.288Z,99.90
2023-06-17T23:59:45.522Z,99.90
